createdAt,value
2023-03-29T00:00:06.040Z,776.3
2023-03-29T00:01:49.701Z,779.6
2023-03-29T00:03:33.096Z,782.8
2023-03-29T00:05:16.514Z,782.6
2023-03-29T00:06:59.903Z,783.3
2023-03-29T00:08:43.284Z,782.7
2023-03-29T00:10:26.676Z,782.3
2023-03-29T00:12:10.074Z,780.2
2023-03-29T00:13:53.572Z,781.1
2023-03-29T00:15:37.250Z,783.4
2023-03-29T00:17:20.597Z,782.2
2023-03-29T00:19:03.980Z,784.4
2023-03-29T00:20:47.376Z,782.5
2023-03-29T00:22:30.772Z,782.5
2023-03-29T00:24:14.175Z,783.5
2023-03-29T00:25:57.563Z,784.7
2023-03-29T00:27:40.959Z,785.3
2023-03-29T00:29:24.680Z,784.1
2023-03-29T00:31:08.054Z,783.8
2023-03-29T00:32:51.457Z,786.6
2023-03-29T00:34:34.854Z,791.2
2023-03-29T00:36:18.241Z,793
2023-03-29T00:38:01.653Z,793
2023-03-29T00:39:45.051Z,793.6
2023-03-29T00:41:28.432Z,794.2
2023-03-29T00:44:54.902Z,792.7
2023-03-29T00:46:38.328Z,789
2023-03-29T00:48:21.702Z,785.4
2023-03-29T00:50:05.103Z,787.6
2023-03-29T00:51:48.496Z,789.5
2023-03-29T00:53:31.902Z,788.7
2023-03-29T00:55:15.289Z,785.6
2023-03-29T00:56:58.672Z,786.3
2023-03-29T01:00:25.164Z,786.7
2023-03-29T01:02:08.593Z,788.7
2023-03-29T01:03:51.948Z,791.7
2023-03-29T01:05:35.352Z,791.5
2023-03-29T01:07:18.787Z,791.5
2023-03-29T01:09:02.149Z,788.3
2023-03-29T01:10:45.622Z,787.5
2023-03-29T01:12:28.963Z,789.2
2023-03-29T01:17:38.179Z,790.3
2023-03-29T01:19:21.578Z,793.2
2023-03-29T01:21:04.974Z,793.8
2023-03-29T01:22:48.374Z,791
2023-03-29T01:24:31.761Z,788.6
2023-03-29T01:26:15.187Z,789.2
2023-03-29T01:27:58.591Z,786.1
2023-03-29T01:29:41.951Z,789.4
2023-03-29T01:33:08.444Z,788.6
2023-03-29T01:34:51.823Z,789.2
2023-03-29T01:36:35.202Z,787.4
2023-03-29T01:38:18.608Z,785.4
2023-03-29T01:40:02.024Z,784.6
2023-03-29T01:41:45.393Z,785.5
2023-03-29T01:43:28.795Z,789.7
2023-03-29T01:45:12.193Z,789.8
2023-03-29T01:48:38.704Z,791.5
2023-03-29T01:50:22.060Z,791
2023-03-29T01:52:05.465Z,790.5
2023-03-29T01:53:48.892Z,790.3
2023-03-29T01:55:32.248Z,788.6
2023-03-29T01:57:15.640Z,787.7
2023-03-29T01:58:59.043Z,786.4
2023-03-29T02:00:42.489Z,787.7
2023-03-29T02:02:26.156Z,788.8
2023-03-29T02:04:09.528Z,789.5
2023-03-29T02:05:52.921Z,791.4
2023-03-29T02:07:36.344Z,790.2
2023-03-29T02:09:19.703Z,788.5
2023-03-29T02:11:03.116Z,789.5
2023-03-29T02:12:46.518Z,787.7
2023-03-29T02:14:29.910Z,783.8
2023-03-29T02:17:56.417Z,780.3
2023-03-29T02:19:39.778Z,780.1
2023-03-29T02:21:23.182Z,779.6
2023-03-29T02:23:06.581Z,776.1
2023-03-29T02:24:49.966Z,775.2
2023-03-29T02:26:33.378Z,772.8
2023-03-29T02:28:16.758Z,770.4
2023-03-29T02:30:00.162Z,771.7
2023-03-29T02:33:26.632Z,771.8
2023-03-29T02:35:10.055Z,772.3
2023-03-29T02:36:53.424Z,772.3
2023-03-29T02:38:36.820Z,774
2023-03-29T02:40:20.231Z,775
2023-03-29T02:42:03.614Z,776.1
2023-03-29T02:43:47.015Z,773.8
2023-03-29T02:48:56.267Z,762.7
2023-03-29T02:50:39.678Z,761.8
2023-03-29T02:52:23.038Z,759.8
2023-03-29T02:54:06.452Z,761.6
2023-03-29T02:55:49.852Z,758.8
2023-03-29T02:57:33.231Z,757
2023-03-29T02:59:16.637Z,759.4
2023-03-29T03:04:25.876Z,765.8
2023-03-29T03:06:09.264Z,767.1
2023-03-29T03:07:52.663Z,769.7
2023-03-29T03:09:36.061Z,769.2
2023-03-29T03:11:19.466Z,763.5
2023-03-29T03:13:02.889Z,759.4
2023-03-29T03:14:46.245Z,755.4
2023-03-29T03:19:55.515Z,752.2
2023-03-29T03:21:38.876Z,748.2
2023-03-29T03:23:22.277Z,746.2
2023-03-29T03:25:05.671Z,746.3
2023-03-29T03:26:49.093Z,746.1
2023-03-29T03:28:32.459Z,744.4
2023-03-29T03:30:15.858Z,742.5
2023-03-29T03:35:25.101Z,741.7
2023-03-29T03:37:08.510Z,743.3
2023-03-29T03:38:51.929Z,747.3
2023-03-29T03:40:35.284Z,747.6
2023-03-29T03:42:18.686Z,745.6
2023-03-29T03:44:02.071Z,745.5
2023-03-29T03:45:45.496Z,744.5
2023-03-29T03:47:28.874Z,744.4
2023-03-29T03:50:55.417Z,741.8
2023-03-29T03:52:38.781Z,741
2023-03-29T03:54:22.140Z,738.8
2023-03-29T03:56:05.544Z,735.4
2023-03-29T03:57:48.946Z,734
2023-03-29T03:59:32.343Z,735.3
2023-03-29T04:01:15.733Z,737
2023-03-29T04:02:59.164Z,739
2023-03-29T04:06:25.581Z,735.4
2023-03-29T04:08:08.993Z,733.4
2023-03-29T04:09:52.395Z,730.8
2023-03-29T04:11:35.839Z,728.6
2023-03-29T04:13:19.176Z,730.4
2023-03-29T04:15:02.581Z,728.7
2023-03-29T04:16:45.957Z,729.6
2023-03-29T04:18:29.373Z,729.5
2023-03-29T04:21:55.838Z,723.9
2023-03-29T04:23:39.247Z,725.3
2023-03-29T04:25:22.635Z,725
2023-03-29T04:27:06.255Z,725.1
2023-03-29T04:28:49.431Z,725.1
2023-03-29T04:30:32.813Z,727
2023-03-29T04:32:16.207Z,729
2023-03-29T04:33:59.635Z,725.6
2023-03-29T04:37:26.093Z,720.9
2023-03-29T04:39:09.485Z,719.6
2023-03-29T04:40:52.884Z,718.8
2023-03-29T04:42:36.280Z,718.3
2023-03-29T04:44:19.672Z,718.8
2023-03-29T04:46:03.063Z,717.4
2023-03-29T04:47:46.461Z,717.3
2023-03-29T04:49:29.874Z,716.6
2023-03-29T04:51:13.564Z,716
2023-03-29T04:52:56.990Z,715.8
2023-03-29T04:54:40.360Z,714
2023-03-29T04:56:23.751Z,713.1
2023-03-29T04:58:07.166Z,713.3
2023-03-29T04:59:50.550Z,716.5
2023-03-29T05:01:33.945Z,719
2023-03-29T05:03:17.321Z,719.1
2023-03-29T05:05:01.027Z,717.1
2023-03-29T05:06:44.420Z,714
2023-03-29T05:08:27.820Z,715.5
2023-03-29T05:10:11.208Z,717.6
2023-03-29T05:11:54.657Z,717.5
2023-03-29T05:13:38.025Z,715.4
2023-03-29T05:15:21.414Z,713.2
2023-03-29T05:17:04.792Z,712.8
2023-03-29T05:20:31.306Z,711
2023-03-29T05:22:14.665Z,712.6
2023-03-29T05:23:58.080Z,713.4
2023-03-29T05:25:41.465Z,712.6
2023-03-29T05:27:24.880Z,711.5
2023-03-29T05:29:08.289Z,712.8
2023-03-29T05:30:51.684Z,712
2023-03-29T05:36:00.906Z,711.1
2023-03-29T05:37:44.289Z,714.7
2023-03-29T05:39:27.687Z,715
2023-03-29T05:41:11.085Z,712.3
2023-03-29T05:42:54.484Z,711.8
2023-03-29T05:44:37.874Z,710.7
2023-03-29T05:46:21.290Z,708.1
2023-03-29T05:49:47.747Z,704.5
2023-03-29T05:51:31.169Z,706.7
2023-03-29T05:53:14.542Z,706.1
2023-03-29T05:54:58.004Z,705.4
2023-03-29T05:56:41.342Z,704.4
2023-03-29T05:58:24.714Z,699.2
2023-03-29T06:00:08.187Z,696.7
2023-03-29T06:01:51.518Z,694.8
2023-03-29T06:05:17.998Z,690.9
2023-03-29T06:07:01.399Z,692.1
2023-03-29T06:08:44.789Z,694.2
2023-03-29T06:10:28.203Z,698.6
2023-03-29T06:12:11.581Z,699.7
2023-03-29T06:13:54.966Z,697.5
2023-03-29T06:15:38.432Z,697.2
2023-03-29T06:17:21.840Z,700.4
2023-03-29T06:19:05.494Z,701.2
2023-03-29T06:20:48.866Z,700.5
2023-03-29T06:22:32.256Z,698.8
2023-03-29T06:24:15.684Z,698.4
2023-03-29T06:25:59.056Z,694.6
2023-03-29T06:27:42.445Z,697.8
2023-03-29T06:29:25.852Z,698.3
2023-03-29T06:31:09.239Z,697.1
2023-03-29T06:32:52.948Z,696
2023-03-29T06:34:36.389Z,701.2
2023-03-29T06:36:19.731Z,700.1
2023-03-29T06:38:03.142Z,697.1
2023-03-29T06:39:46.533Z,698.5
2023-03-29T06:41:29.942Z,698.2
2023-03-29T06:43:13.325Z,699.1
2023-03-29T06:48:22.577Z,710.5
2023-03-29T06:50:05.987Z,710.3
2023-03-29T06:51:49.346Z,708.1
2023-03-29T06:53:32.752Z,707.5
2023-03-29T06:55:16.149Z,703.8
2023-03-29T06:56:59.540Z,702
2023-03-29T06:58:42.951Z,700.6
2023-03-29T07:03:52.200Z,698.7
2023-03-29T07:05:35.589Z,700.3
2023-03-29T07:07:18.969Z,698.6
2023-03-29T07:09:02.360Z,704.7
2023-03-29T07:10:45.775Z,707.3
2023-03-29T07:12:29.180Z,707
2023-03-29T07:14:12.559Z,708.4
2023-03-29T07:19:21.786Z,716.1
2023-03-29T07:21:05.196Z,721.3
2023-03-29T07:22:48.597Z,723.8
2023-03-29T07:24:32.004Z,723.6
2023-03-29T07:26:15.382Z,721.1
2023-03-29T07:27:58.786Z,723.2
2023-03-29T07:29:42.182Z,726.6
2023-03-29T07:34:51.409Z,730.3
2023-03-29T07:36:34.800Z,734.6
2023-03-29T07:38:18.203Z,735.8
2023-03-29T07:40:01.601Z,733.3
2023-03-29T07:41:44.988Z,729.7
2023-03-29T07:43:28.394Z,734.1
2023-03-29T07:45:11.776Z,738
2023-03-29T07:48:38.264Z,743.9
2023-03-29T07:50:21.665Z,744.6
2023-03-29T07:52:05.057Z,745.5
2023-03-29T07:53:48.522Z,747.6
2023-03-29T07:55:31.853Z,749.2
2023-03-29T07:57:15.235Z,746.6
2023-03-29T07:58:58.631Z,743.6
2023-03-29T08:02:25.130Z,743.7
2023-03-29T08:04:08.501Z,745.6
2023-03-29T08:05:51.919Z,748.3
2023-03-29T08:07:35.300Z,751.4
2023-03-29T08:09:18.725Z,757
2023-03-29T08:11:02.096Z,758.8
2023-03-29T08:12:45.494Z,763.1
2023-03-29T08:17:54.718Z,772.9
2023-03-29T08:19:38.115Z,771.5
2023-03-29T08:21:21.524Z,770.7
2023-03-29T08:24:48.318Z,780.2
2023-03-29T08:26:31.707Z,784
2023-03-29T08:28:15.103Z,783.5
2023-03-29T08:33:24.339Z,776.4
2023-03-29T08:35:07.747Z,774.2
2023-03-29T08:36:51.132Z,775.3
2023-03-29T08:38:34.546Z,776.5
2023-03-29T08:40:17.989Z,777.2
2023-03-29T08:42:01.683Z,774.3
2023-03-29T08:43:44.713Z,773.6
2023-03-29T08:45:28.117Z,774.1
2023-03-29T08:48:54.585Z,780.1
2023-03-29T08:50:38.020Z,779.4
2023-03-29T08:52:21.387Z,779.7
2023-03-29T08:54:04.792Z,778
2023-03-29T08:55:48.203Z,777.6
2023-03-29T08:57:31.603Z,775.8
2023-03-29T08:59:14.984Z,778.3
2023-03-29T09:00:58.375Z,776.7
2023-03-29T09:04:24.835Z,774.8
2023-03-29T09:06:08.235Z,774.5
2023-03-29T09:07:51.656Z,773.5
2023-03-29T09:09:35.024Z,774.3
2023-03-29T09:11:18.541Z,777.8
2023-03-29T09:13:01.809Z,777.7
2023-03-29T09:14:45.218Z,779.8
2023-03-29T09:16:28.600Z,781.6
2023-03-29T09:19:55.093Z,787.2
2023-03-29T09:21:38.476Z,786.8
2023-03-29T09:23:21.906Z,787.2
2023-03-29T09:25:05.261Z,786.2
2023-03-29T09:26:59.808Z,785.7
2023-03-29T09:28:32.053Z,782.5
2023-03-29T09:30:15.537Z,780.7
2023-03-29T09:31:58.856Z,779.3
2023-03-29T09:33:42.549Z,777.2
2023-03-29T09:35:25.959Z,774.4
2023-03-29T09:37:09.369Z,776.3
2023-03-29T09:38:52.727Z,772.8
2023-03-29T09:40:36.121Z,770.2
2023-03-29T09:42:19.536Z,774.7
2023-03-29T09:44:02.909Z,773.7
2023-03-29T09:45:46.323Z,767.7
2023-03-29T09:49:12.802Z,759.9
2023-03-29T09:50:56.177Z,779.8
2023-03-29T09:52:39.577Z,807.5
2023-03-29T09:54:22.980Z,807.1
2023-03-29T09:56:06.400Z,797.6
2023-03-29T09:57:49.784Z,792.1
2023-03-29T09:59:33.185Z,799
2023-03-29T10:04:42.452Z,815.1
2023-03-29T10:06:25.812Z,809.1
2023-03-29T10:08:09.208Z,806.8
2023-03-29T10:09:52.598Z,806.7
2023-03-29T10:11:36.018Z,806.1
2023-03-29T10:13:19.405Z,803.8
2023-03-29T10:15:02.806Z,799.3
2023-03-29T10:16:46.239Z,796.6
2023-03-29T10:18:29.914Z,792.9
2023-03-29T10:20:13.297Z,792.7
2023-03-29T10:21:56.691Z,791.1
2023-03-29T10:23:40.075Z,792.2
2023-03-29T10:25:23.476Z,793.6
2023-03-29T10:27:06.870Z,796
2023-03-29T10:28:50.276Z,796.3
2023-03-29T10:30:33.667Z,794.1
2023-03-29T10:34:00.136Z,796.7
2023-03-29T10:35:43.537Z,799
2023-03-29T10:37:26.944Z,800.6
2023-03-29T10:39:10.444Z,803.4
2023-03-29T10:40:53.753Z,803.4
2023-03-29T10:42:37.146Z,809.1
2023-03-29T10:44:20.520Z,805.8
2023-03-29T10:49:29.746Z,808.3
2023-03-29T10:51:13.151Z,815.6
2023-03-29T10:52:56.562Z,821.7
2023-03-29T10:54:39.970Z,826.2
2023-03-29T10:56:23.375Z,834.4
2023-03-29T10:58:06.789Z,840
2023-03-29T10:59:50.170Z,844.8
2023-03-29T11:04:59.368Z,870.5
2023-03-29T11:06:42.757Z,883.8
2023-03-29T11:08:26.160Z,890.3
2023-03-29T11:10:09.583Z,888.1
2023-03-29T11:11:52.969Z,886
2023-03-29T11:13:36.374Z,886.7
2023-03-29T11:18:46.216Z,888.5
2023-03-29T11:20:29.623Z,891.3
2023-03-29T11:22:13.020Z,892.2
2023-03-29T11:23:56.417Z,894.7
2023-03-29T11:25:39.805Z,892.5
2023-03-29T11:27:23.211Z,890.4
2023-03-29T11:29:06.617Z,891.1
2023-03-29T11:30:50.005Z,892.7
2023-03-29T11:34:16.494Z,894.2
2023-03-29T11:35:59.862Z,893.6
2023-03-29T11:37:43.267Z,899.4
2023-03-29T11:39:26.664Z,896.4
2023-03-29T11:41:10.115Z,895.5
2023-03-29T11:42:53.499Z,898.8
2023-03-29T11:44:36.847Z,902.7
2023-03-29T11:46:20.256Z,904.7
2023-03-29T11:48:03.956Z,909.8
2023-03-29T11:49:47.353Z,912.7
2023-03-29T11:51:30.726Z,917.5
2023-03-29T11:53:14.132Z,923.7
2023-03-29T11:54:57.516Z,926.3
2023-03-29T11:56:40.927Z,928.4
2023-03-29T11:58:24.902Z,927.4
2023-03-29T12:00:07.772Z,929.1
2023-03-29T12:01:51.434Z,929.7
2023-03-29T12:03:34.839Z,931.8
2023-03-29T12:05:18.227Z,937.4
2023-03-29T12:07:01.607Z,941.1
2023-03-29T12:08:45.015Z,947
2023-03-29T12:10:28.405Z,946.5
2023-03-29T12:12:11.796Z,947.3
2023-03-29T12:17:21.054Z,955.8
2023-03-29T12:19:04.435Z,958.3
2023-03-29T12:20:47.889Z,959.5
2023-03-29T12:22:31.245Z,957.6
2023-03-29T12:24:14.649Z,958.2
2023-03-29T12:25:58.024Z,957.2
2023-03-29T12:27:41.411Z,960.6
2023-03-29T12:32:50.662Z,965.4
2023-03-29T12:34:34.054Z,967.3
2023-03-29T12:36:17.448Z,968.7
2023-03-29T12:38:00.867Z,968.6
2023-03-29T12:39:44.247Z,969.4
2023-03-29T12:41:27.647Z,967.2
2023-03-29T12:43:11.054Z,967.3
2023-03-29T12:44:54.437Z,964.8
2023-03-29T12:46:38.147Z,964.9
2023-03-29T12:48:21.542Z,966.1
2023-03-29T12:50:04.948Z,971.6
2023-03-29T12:51:48.334Z,975.3
2023-03-29T12:53:31.735Z,980.4
2023-03-29T12:55:15.137Z,981.7
2023-03-29T12:56:58.531Z,978.7
2023-03-29T12:58:41.925Z,976.6
2023-03-29T13:02:08.392Z,978.2
2023-03-29T13:03:51.796Z,977.3
2023-03-29T13:05:35.202Z,977.4
2023-03-29T13:07:18.578Z,979.7
2023-03-29T13:09:01.984Z,982.3
2023-03-29T13:10:45.381Z,990.7
2023-03-29T13:12:28.787Z,993.5
2023-03-29T13:14:12.168Z,994
2023-03-29T13:17:38.647Z,1001.7
2023-03-29T13:19:22.046Z,1002
2023-03-29T13:21:05.427Z,998.3
2023-03-29T13:22:48.841Z,1001.3
2023-03-29T13:24:32.221Z,1014.3
2023-03-29T13:26:15.615Z,1028.1
2023-03-29T13:27:59.023Z,1022.2
2023-03-29T13:29:42.409Z,1018.5
2023-03-29T13:33:08.903Z,1027.5
2023-03-29T13:34:52.289Z,1031
2023-03-29T13:36:35.684Z,1034.8
2023-03-29T13:38:19.076Z,1043.8
2023-03-29T13:40:02.483Z,1045.7
2023-03-29T13:41:45.915Z,1045.1
2023-03-29T13:43:29.268Z,1049
2023-03-29T13:45:12.750Z,1052
2023-03-29T13:46:56.394Z,1055.4
2023-03-29T13:48:39.776Z,1056.8
2023-03-29T13:50:23.177Z,1059.3
2023-03-29T13:52:06.597Z,1064.2
2023-03-29T13:53:49.956Z,1062.8
2023-03-29T13:55:33.383Z,1060.5
2023-03-29T13:57:16.769Z,1060.1
2023-03-29T13:59:00.140Z,1056.8
2023-03-29T14:00:43.857Z,1058.4
2023-03-29T14:02:27.256Z,1062.2
2023-03-29T14:04:10.648Z,1062.2
2023-03-29T14:05:54.047Z,1064.3
2023-03-29T14:07:37.451Z,1070.1
2023-03-29T14:09:20.835Z,1075
2023-03-29T14:11:04.240Z,1078.6
2023-03-29T14:12:47.637Z,1080.3
2023-03-29T14:14:31.328Z,1084.5
2023-03-29T14:16:14.730Z,1083.6
2023-03-29T14:17:58.153Z,1084.3
2023-03-29T14:19:41.520Z,1086.8
2023-03-29T14:21:24.954Z,1086.1
2023-03-29T14:23:08.325Z,1089.1
2023-03-29T14:24:51.722Z,1094.3
2023-03-29T14:26:35.121Z,1104.7
2023-03-29T14:28:18.820Z,1110.8
2023-03-29T14:30:02.239Z,1110.2
2023-03-29T14:31:45.616Z,1112.1
2023-03-29T14:33:29.013Z,1114.6
2023-03-29T14:35:12.406Z,1116
2023-03-29T14:36:55.814Z,1120.7
2023-03-29T14:38:39.197Z,1125.1
2023-03-29T14:40:22.608Z,1128.8
2023-03-29T14:43:49.073Z,1122.5
2023-03-29T14:45:32.517Z,1122.2
2023-03-29T14:47:15.866Z,1120.3
2023-03-29T14:48:59.261Z,1120.1
2023-03-29T14:50:42.652Z,1122.7
2023-03-29T14:52:26.064Z,1125.8
2023-03-29T14:54:09.494Z,1123.5
2023-03-29T14:55:52.850Z,1117.4
2023-03-29T14:57:36.549Z,1113.2
2023-03-29T14:59:19.952Z,1111.7
2023-03-29T15:01:03.339Z,1109.2
2023-03-29T15:02:46.746Z,1104.8
2023-03-29T15:04:30.141Z,1104.3
2023-03-29T15:06:13.537Z,1104.1
2023-03-29T15:07:56.926Z,1101.4
2023-03-29T15:09:40.338Z,1101.7
2023-03-29T15:11:24.034Z,1105.1
2023-03-29T15:13:07.445Z,1103.7
2023-03-29T15:14:50.815Z,1103.5
2023-03-29T15:16:34.231Z,1106
2023-03-29T15:18:17.626Z,1107
2023-03-29T15:20:01.028Z,1104.2
2023-03-29T15:21:44.433Z,1102.3
2023-03-29T15:23:27.815Z,1101.3
2023-03-29T15:25:11.514Z,1097.8
2023-03-29T15:26:54.907Z,1093.8
2023-03-29T15:28:38.313Z,1090
2023-03-29T15:30:21.700Z,1091.2
2023-03-29T15:32:05.105Z,1089.7
2023-03-29T15:33:48.514Z,1090.6
2023-03-29T15:35:31.913Z,1090.1
2023-03-29T15:37:15.289Z,1090.8
2023-03-29T15:38:58.995Z,1088.1
2023-03-29T15:40:42.400Z,1084.2
2023-03-29T15:42:25.789Z,1081.7
2023-03-29T15:44:09.193Z,1080
2023-03-29T15:45:52.572Z,1081.1
2023-03-29T15:47:35.991Z,1083.3
2023-03-29T15:49:19.382Z,1085.3
2023-03-29T15:54:28.971Z,1083.9
2023-03-29T15:56:12.057Z,1081.7
2023-03-29T15:57:55.449Z,1081
2023-03-29T15:59:38.825Z,1084.7
2023-03-29T16:01:22.206Z,1087.1
2023-03-29T16:03:05.617Z,1084.5
2023-03-29T16:04:49.008Z,1082
2023-03-29T16:09:58.292Z,1088.9
2023-03-29T16:11:41.657Z,1087.2
2023-03-29T16:13:25.043Z,1087
2023-03-29T16:15:08.464Z,1090.2
2023-03-29T16:16:51.837Z,1100.7
2023-03-29T16:18:35.250Z,1108.7
2023-03-29T16:20:18.628Z,1112.3
2023-03-29T16:25:27.879Z,1111.5
2023-03-29T16:27:11.331Z,1108.3
2023-03-29T16:28:54.666Z,1113.8
2023-03-29T16:30:38.072Z,1118.5
2023-03-29T16:32:21.446Z,1121.7
2023-03-29T16:34:04.867Z,1123.7
2023-03-29T16:35:48.284Z,1122.4
2023-03-29T16:39:14.721Z,1122.2
2023-03-29T16:40:58.118Z,1123.3
2023-03-29T16:42:41.506Z,1124.6
2023-03-29T16:44:25.017Z,1123.6
2023-03-29T16:46:08.316Z,1123.4
2023-03-29T16:47:51.751Z,1123.4
2023-03-29T16:49:35.151Z,1119.4
2023-03-29T16:54:44.340Z,1111.5
2023-03-29T16:56:27.763Z,1115.5
2023-03-29T16:58:11.139Z,1113.1
2023-03-29T16:59:54.539Z,1111.6
2023-03-29T17:01:37.942Z,1111.3
2023-03-29T17:03:21.358Z,1110.6
2023-03-29T17:05:04.740Z,1108.1
2023-03-29T17:08:31.198Z,1106.4
2023-03-29T17:10:14.588Z,1103.4
2023-03-29T17:11:58.009Z,1100.6
2023-03-29T17:13:41.393Z,1097.7
2023-03-29T17:15:24.783Z,1093.6
2023-03-29T17:17:08.205Z,1092.7
2023-03-29T17:18:51.591Z,1093.3
2023-03-29T17:20:34.989Z,1092.7
2023-03-29T17:22:18.677Z,1091.4
2023-03-29T17:24:02.085Z,1090.3
2023-03-29T17:25:45.508Z,1088.3
2023-03-29T17:27:28.857Z,1084.5
2023-03-29T17:29:12.286Z,1082.6
2023-03-29T17:30:55.702Z,1077.6
2023-03-29T17:32:39.063Z,1075.6
2023-03-29T17:34:22.458Z,1071.4
2023-03-29T17:37:48.945Z,1068.8
2023-03-29T17:39:32.360Z,1062.7
2023-03-29T17:41:15.734Z,1053.7
2023-03-29T17:42:59.123Z,1042.4
2023-03-29T17:44:42.522Z,1035.6
2023-03-29T17:46:25.923Z,1033
2023-03-29T17:48:09.313Z,1033.1
2023-03-29T17:53:19.010Z,1039.4
2023-03-29T17:55:01.960Z,1039.6
2023-03-29T17:56:45.351Z,1042.5
2023-03-29T17:58:28.757Z,1044.4
2023-03-29T18:00:12.154Z,1047.3
2023-03-29T18:01:55.542Z,1046.6
2023-03-29T18:03:38.952Z,1044.7
2023-03-29T18:05:22.324Z,1043.5
2023-03-29T18:07:06.050Z,1047.8
2023-03-29T18:08:49.451Z,1050.8
2023-03-29T18:10:32.821Z,1053.6
2023-03-29T18:12:16.240Z,1059.4
2023-03-29T18:13:59.633Z,1063.2
2023-03-29T18:15:43.025Z,1066
2023-03-29T18:17:26.421Z,1072.2
2023-03-29T18:19:09.829Z,1075.1
2023-03-29T18:22:36.304Z,1068.3
2023-03-29T18:24:19.703Z,1068.3
2023-03-29T18:26:03.104Z,1071.2
2023-03-29T18:27:46.478Z,1073.5
2023-03-29T18:29:29.884Z,1072.3
2023-03-29T18:31:13.288Z,1070.6
2023-03-29T18:32:56.684Z,1069
2023-03-29T18:34:40.081Z,1066.7
2023-03-29T18:38:06.541Z,1059.6
2023-03-29T18:39:49.944Z,1060.7
2023-03-29T18:41:33.348Z,1071.2
2023-03-29T18:43:16.729Z,1079.4
2023-03-29T18:45:00.138Z,1085.5
2023-03-29T18:46:43.530Z,1083.4
2023-03-29T18:48:26.935Z,1081.5
2023-03-29T18:50:10.316Z,1084.5
2023-03-29T18:51:54.036Z,1091.6
2023-03-29T18:53:37.438Z,1096.7
2023-03-29T18:55:20.815Z,1100.6
2023-03-29T18:57:04.218Z,1104.8
2023-03-29T18:58:47.615Z,1107
2023-03-29T19:00:31.015Z,1115.6
2023-03-29T19:02:14.406Z,1127
2023-03-29T19:03:57.814Z,1136.8
2023-03-29T19:07:24.296Z,1144.5
2023-03-29T19:09:07.682Z,1144.1
2023-03-29T19:10:51.080Z,1144.7
2023-03-29T19:12:34.476Z,1147.2
2023-03-29T19:14:17.858Z,1156.5
2023-03-29T19:16:01.274Z,1170.1
2023-03-29T19:17:44.649Z,1181.7
2023-03-29T19:19:28.067Z,1189.6
2023-03-29T19:22:54.532Z,1196.3
2023-03-29T19:24:37.937Z,1200.2
2023-03-29T19:26:21.320Z,1200.4
2023-03-29T19:28:04.740Z,1198.5
2023-03-29T19:29:48.132Z,1198.2
2023-03-29T19:31:31.512Z,1201.3
2023-03-29T19:33:14.904Z,1206.6
2023-03-29T19:34:58.324Z,1211.2
2023-03-29T19:38:24.785Z,1222.5
2023-03-29T19:40:08.170Z,1223.8
2023-03-29T19:41:51.576Z,1222.7
2023-03-29T19:43:34.971Z,1225.5
2023-03-29T19:45:18.373Z,1237.7
2023-03-29T19:47:01.765Z,1251.7
2023-03-29T19:48:45.166Z,1272.2
2023-03-29T19:50:28.563Z,1282.5
2023-03-29T19:52:12.259Z,1276.4
2023-03-29T19:53:55.647Z,1271.7
2023-03-29T19:55:39.061Z,1268.3
2023-03-29T19:57:22.468Z,1266
2023-03-29T19:59:05.842Z,1263.4
2023-03-29T20:00:49.278Z,1247.2
2023-03-29T20:02:32.633Z,1220.2
2023-03-29T20:04:16.062Z,1202.5
2023-03-29T20:07:42.526Z,1184
2023-03-29T20:09:25.904Z,1179
2023-03-29T20:11:09.288Z,1168.5
2023-03-29T20:12:52.713Z,1161.5
2023-03-29T20:14:36.097Z,1157.2
2023-03-29T20:16:19.499Z,1157.5
2023-03-29T20:18:02.893Z,1161.8
2023-03-29T20:26:38.935Z,1151.6
2023-03-29T20:28:22.343Z,1156.1
2023-03-29T20:30:05.734Z,1161.3
2023-03-29T20:31:49.114Z,1163.3
2023-03-29T20:33:32.537Z,1161.8
2023-03-29T20:35:15.931Z,1164.2
2023-03-29T20:36:59.631Z,1167.1
2023-03-29T20:38:43.048Z,1172
2023-03-29T20:40:26.406Z,1172
2023-03-29T20:42:09.904Z,1172.1
2023-03-29T20:43:53.283Z,1171.8
2023-03-29T20:45:36.600Z,1172.3
2023-03-29T20:47:20.008Z,1172.5
2023-03-29T20:49:03.393Z,1166.2
2023-03-29T20:52:29.868Z,1161.5
2023-03-29T20:54:13.258Z,1161.5
2023-03-29T20:55:56.666Z,1157.4
2023-03-29T20:57:40.070Z,1154.6
2023-03-29T20:59:23.459Z,1154.8
2023-03-29T21:01:06.855Z,1156.6
2023-03-29T21:02:50.266Z,1155.8
2023-03-29T21:04:33.669Z,1160.5
2023-03-29T21:08:00.157Z,1158.6
2023-03-29T21:09:43.526Z,1158.8
2023-03-29T21:11:26.908Z,1160.7
2023-03-29T21:13:10.308Z,1163.3
2023-03-29T21:14:53.729Z,1162.3
2023-03-29T21:16:37.111Z,1157.6
2023-03-29T21:18:20.511Z,1159.2
2023-03-29T21:20:03.912Z,1159.2
2023-03-29T21:23:30.378Z,1164.2
2023-03-29T21:25:13.763Z,1172
2023-03-29T21:27:09.964Z,1168
2023-03-29T21:28:40.555Z,1161.4
2023-03-29T21:30:23.944Z,1158.3
2023-03-29T21:32:07.381Z,1159.5
2023-03-29T21:33:50.753Z,1161.7
2023-03-29T21:35:34.141Z,1164
2023-03-29T21:37:17.851Z,1165.6
2023-03-29T21:39:01.267Z,1168.2
2023-03-29T21:40:44.645Z,1167.8
2023-03-29T21:42:28.053Z,1167.5
2023-03-29T21:44:11.432Z,1163.1
2023-03-29T21:45:54.837Z,1163.7
2023-03-29T21:47:38.218Z,1161.8
2023-03-29T21:49:21.635Z,1161.5
2023-03-29T21:52:48.089Z,1165.1
2023-03-29T21:54:31.505Z,1164.7
2023-03-29T21:56:14.910Z,1163.7
2023-03-29T21:57:58.302Z,1163.2
2023-03-29T21:59:41.693Z,1162.8
2023-03-29T22:01:25.100Z,1163.6
2023-03-29T22:03:08.481Z,1162.8
2023-03-29T22:08:17.739Z,1168.8
2023-03-29T22:10:01.140Z,1175.5
2023-03-29T22:11:44.519Z,1175.4
2023-03-29T22:13:27.925Z,1176.3
2023-03-29T22:15:11.303Z,1172.3
2023-03-29T22:16:54.701Z,1169.3
2023-03-29T22:18:38.101Z,1174.5
2023-03-29T22:22:04.570Z,1177
2023-03-29T22:23:47.976Z,1183.2
2023-03-29T22:25:31.383Z,1186.4
2023-03-29T22:27:14.761Z,1184.3
2023-03-29T22:28:58.152Z,1181.3
2023-03-29T22:30:41.542Z,1178.4
2023-03-29T22:32:24.941Z,1178.2
2023-03-29T22:35:51.433Z,1172.9
2023-03-29T22:37:34.827Z,1172.2
2023-03-29T22:39:18.227Z,1171.8
2023-03-29T22:41:01.623Z,1171.5
2023-03-29T22:42:45.008Z,1168.5
2023-03-29T22:44:28.413Z,1167.8
2023-03-29T22:46:11.828Z,1165
2023-03-29T22:51:21.035Z,1168.5
2023-03-29T22:53:04.426Z,1171
2023-03-29T22:54:47.845Z,1176
2023-03-29T22:56:31.225Z,1181
2023-03-29T22:58:14.652Z,1179
2023-03-29T22:59:58.052Z,1178.3
2023-03-29T23:01:41.424Z,1180.2
2023-03-29T23:05:07.903Z,1176.1
2023-03-29T23:06:51.299Z,1171.7
2023-03-29T23:08:34.701Z,1167.1
2023-03-29T23:10:18.071Z,1164.8
2023-03-29T23:12:01.477Z,1161.5
2023-03-29T23:13:44.882Z,1160.1
2023-03-29T23:15:28.285Z,1160.8
2023-03-29T23:17:11.672Z,1161.1
2023-03-29T23:18:55.377Z,1163.3
2023-03-29T23:20:38.767Z,1168.3
2023-03-29T23:22:22.168Z,1168.6
2023-03-29T23:24:05.569Z,1166
2023-03-29T23:25:48.969Z,1157.8
2023-03-29T23:27:32.371Z,1146.6
2023-03-29T23:29:15.755Z,1131.7
2023-03-29T23:34:24.996Z,1089
2023-03-29T23:36:08.403Z,1070.2
2023-03-29T23:37:51.799Z,1058.7
2023-03-29T23:39:35.188Z,1057
2023-03-29T23:41:18.640Z,1058.3
2023-03-29T23:43:01.979Z,1059.7
2023-03-29T23:44:45.384Z,1061.1
2023-03-29T23:48:11.841Z,1064.3
2023-03-29T23:49:55.308Z,1065
2023-03-29T23:51:38.648Z,1062.1
2023-03-29T23:53:22.032Z,1060
2023-03-29T23:55:05.439Z,1058.4
2023-03-29T23:56:48.819Z,1057.3
2023-03-29T23:58:32.226Z,1051.1
